sensor_id;sensor_type;location;lat;lon;timestamp;temperature;humidity
17762;DHT22;9005;48.838;10.112;2023-08-17T00:00:02;20.50;99.90
17762;DHT22;9005;48.838;10.112;2023-08-17T00:02:31;20.50;99.90
17762;DHT22;9005;48.838;10.112;2023-08-17T00:04:59;20.70;99.90
17762;DHT22;9005;48.838;10.112;2023-08-17T00:07:26;20.70;99.90
17762;DHT22;9005;48.838;10.112;2023-08-17T00:09:53;20.50;99.90
17762;DHT22;9005;48.838;10.112;2023-08-17T00:12:20;20.60;99.90
17762;DHT22;9005;48.838;10.112;2023-08-17T00:14:46;20.60;99.90
17762;DHT22;9005;48.838;10.112;2023-08-17T00:17:13;20.70;99.90
17762;DHT22;9005;48.838;10.112;2023-08-17T00:19:40;20.60;99.90
17762;DHT22;9005;48.838;10.112;2023-08-17T00:22:08;20.50;99.90
17762;DHT22;9005;48.838;10.112;2023-08-17T00:24:35;20.40;99.90
17762;DHT22;9005;48.838;10.112;2023-08-17T00:27:02;20.30;99.90
17762;DHT22;9005;48.838;10.112;2023-08-17T00:29:29;20.40;99.90
17762;DHT22;9005;48.838;10.112;2023-08-17T00:31:56;20.30;99.90
17762;DHT22;9005;48.838;10.112;2023-08-17T00:34:23;20.30;99.90
17762;DHT22;9005;48.838;10.112;2023-08-17T00:36:49;20.30;99.90
17762;DHT22;9005;48.838;10.112;2023-08-17T00:39:17;20.30;99.90
17762;DHT22;9005;48.838;10.112;2023-08-17T00:41:45;20.10;99.90
17762;DHT22;9005;48.838;10.112;2023-08-17T00:44:12;20.00;99.90
17762;DHT22;9005;48.838;10.112;2023-08-17T00:46:38;20.00;99.90
17762;DHT22;9005;48.838;10.112;2023-08-17T00:49:06;20.00;99.90
17762;DHT22;9005;48.838;10.112;2023-08-17T00:51:33;19.90;99.90
17762;DHT22;9005;48.838;10.112;2023-08-17T00:54:02;20.00;99.90
17762;DHT22;9005;48.838;10.112;2023-08-17T00:56:30;19.90;99.90
17762;DHT22;9005;48.838;10.112;2023-08-17T00:58:57;19.90;99.90
17762;DHT22;9005;48.838;10.112;2023-08-17T01:01:24;19.90;99.90
17762;DHT22;9005;48.838;10.112;2023-08-17T01:03:51;19.90;99.90
17762;DHT22;9005;48.838;10.112;2023-08-17T01:06:18;19.80;99.90
17762;DHT22;9005;48.838;10.112;2023-08-17T01:08:45;19.80;99.90
17762;DHT22;9005;48.838;10.112;2023-08-17T01:11:20;19.80;99.90
17762;DHT22;9005;48.838;10.112;2023-08-17T01:13:55;19.70;99.90
17762;DHT22;9005;48.838;10.112;2023-08-17T01:16:27;19.70;99.90
17762;DHT22;9005;48.838;10.112;2023-08-17T01:18:57;19.60;99.90
17762;DHT22;9005;48.838;10.112;2023-08-17T01:21:33;19.60;99.90
17762;DHT22;9005;48.838;10.112;2023-08-17T01:24:05;19.50;99.90
17762;DHT22;9005;48.838;10.112;2023-08-17T01:26:31;19.50;99.90
17762;DHT22;9005;48.838;10.112;2023-08-17T01:28:58;19.30;99.90
17762;DHT22;9005;48.838;10.112;2023-08-17T01:31:29;19.30;99.90
17762;DHT22;9005;48.838;10.112;2023-08-17T01:34:01;19.30;99.90
17762;DHT22;9005;48.838;10.112;2023-08-17T01:36:33;19.80;99.90
17762;DHT22;9005;48.838;10.112;2023-08-17T01:39:05;19.30;99.90
17762;DHT22;9005;48.838;10.112;2023-08-17T01:41:33;19.30;99.90
17762;DHT22;9005;48.838;10.112;2023-08-17T01:44:00;19.30;99.90
17762;DHT22;9005;48.838;10.112;2023-08-17T01:46:30;19.20;99.90
17762;DHT22;9005;48.838;10.112;2023-08-17T01:48:57;19.20;99.90
17762;DHT22;9005;48.838;10.112;2023-08-17T01:51:24;19.20;99.90
17762;DHT22;9005;48.838;10.112;2023-08-17T01:53:51;19.20;99.90
17762;DHT22;9005;48.838;10.112;2023-08-17T01:56:19;19.20;99.90
17762;DHT22;9005;48.838;10.112;2023-08-17T01:58:46;19.10;99.90
17762;DHT22;9005;48.838;10.112;2023-08-17T02:01:13;19.10;99.90
17762;DHT22;9005;48.838;10.112;2023-08-17T02:03:39;19.10;99.90
17762;DHT22;9005;48.838;10.112;2023-08-17T02:06:06;18.90;99.90
17762;DHT22;9005;48.838;10.112;2023-08-17T02:08:33;18.90;99.90
17762;DHT22;9005;48.838;10.112;2023-08-17T02:11:00;18.90;99.90
17762;DHT22;9005;48.838;10.112;2023-08-17T02:13:29;18.90;99.90
17762;DHT22;9005;48.838;10.112;2023-08-17T02:15:55;18.90;99.90
17762;DHT22;9005;48.838;10.112;2023-08-17T02:18:22;18.80;99.90
17762;DHT22;9005;48.838;10.112;2023-08-17T02:20:49;18.70;99.90
17762;DHT22;9005;48.838;10.112;2023-08-17T02:23:15;18.70;99.90
17762;DHT22;9005;48.838;10.112;2023-08-17T02:25:42;18.60;99.90
17762;DHT22;9005;48.838;10.112;2023-08-17T02:28:09;18.70;99.90
17762;DHT22;9005;48.838;10.112;2023-08-17T02:30:37;18.50;99.90
17762;DHT22;9005;48.838;10.112;2023-08-17T02:33:04;18.50;99.90
17762;DHT22;9005;48.838;10.112;2023-08-17T02:35:31;18.40;99.90
17762;DHT22;9005;48.838;10.112;2023-08-17T02:37:58;18.40;99.90
17762;DHT22;9005;48.838;10.112;2023-08-17T02:40:24;18.40;99.90
17762;DHT22;9005;48.838;10.112;2023-08-17T02:42:51;18.40;99.90
17762;DHT22;9005;48.838;10.112;2023-08-17T02:45:18;18.40;99.90
17762;DHT22;9005;48.838;10.112;2023-08-17T02:47:46;18.40;99.90
17762;DHT22;9005;48.838;10.112;2023-08-17T02:50:12;18.30;99.90
17762;DHT22;9005;48.838;10.112;2023-08-17T02:52:39;18.30;99.90
17762;DHT22;9005;48.838;10.112;2023-08-17T02:55:07;18.30;99.90
17762;DHT22;9005;48.838;10.112;2023-08-17T02:57:33;18.20;99.90
17762;DHT22;9005;48.838;10.112;2023-08-17T03:00:00;18.20;99.90
17762;DHT22;9005;48.838;10.112;2023-08-17T03:02:27;18.20;99.90
17762;DHT22;9005;48.838;10.112;2023-08-17T03:04:55;18.10;99.90
17762;DHT22;9005;48.838;10.112;2023-08-17T03:07:22;18.10;99.90
17762;DHT22;9005;48.838;10.112;2023-08-17T03:09:49;18.10;99.90
17762;DHT22;9005;48.838;10.112;2023-08-17T03:12:15;18.10;99.90
17762;DHT22;9005;48.838;10.112;2023-08-17T03:14:42;18.10;99.90
17762;DHT22;9005;48.838;10.112;2023-08-17T03:17:09;18.10;99.90
17762;DHT22;9005;48.838;10.112;2023-08-17T03:19:36;18.00;99.90
17762;DHT22;9005;48.838;10.112;2023-08-17T03:22:04;18.00;99.90
17762;DHT22;9005;48.838;10.112;2023-08-17T03:24:31;18.00;99.90
17762;DHT22;9005;48.838;10.112;2023-08-17T03:26:57;18.00;99.90
17762;DHT22;9005;48.838;10.112;2023-08-17T03:29:25;18.00;99.90
17762;DHT22;9005;48.838;10.112;2023-08-17T03:31:52;17.90;99.90
17762;DHT22;9005;48.838;10.112;2023-08-17T03:34:19;17.90;99.90
17762;DHT22;9005;48.838;10.112;2023-08-17T03:36:45;17.90;99.90
17762;DHT22;9005;48.838;10.112;2023-08-17T03:39:14;17.90;99.90
17762;DHT22;9005;48.838;10.112;2023-08-17T03:41:41;17.80;99.90
17762;DHT22;9005;48.838;10.112;2023-08-17T03:44:08;17.80;99.90
17762;DHT22;9005;48.838;10.112;2023-08-17T03:46:35;17.70;99.90
17762;DHT22;9005;48.838;10.112;2023-08-17T03:49:02;17.70;99.90
17762;DHT22;9005;48.838;10.112;2023-08-17T03:51:28;16.20;99.90
17762;DHT22;9005;48.838;10.112;2023-08-17T03:53:55;17.70;99.90
17762;DHT22;9005;48.838;10.112;2023-08-17T03:56:23;17.70;99.90
17762;DHT22;9005;48.838;10.112;2023-08-17T03:58:50;17.70;99.90
17762;DHT22;9005;48.838;10.112;2023-08-17T04:01:17;17.70;99.90
17762;DHT22;9005;48.838;10.112;2023-08-17T04:03:44;17.70;99.90
17762;DHT22;9005;48.838;10.112;2023-08-17T04:06:10;17.70;99.90
17762;DHT22;9005;48.838;10.112;2023-08-17T04:08:37;17.70;99.90
17762;DHT22;9005;48.838;10.112;2023-08-17T04:11:04;17.70;99.90
17762;DHT22;9005;48.838;10.112;2023-08-17T04:13:32;17.70;99.90
17762;DHT22;9005;48.838;10.112;2023-08-17T04:15:59;17.70;99.90
17762;DHT22;9005;48.838;10.112;2023-08-17T04:18:26;17.70;99.90
17762;DHT22;9005;48.838;10.112;2023-08-17T04:20:53;17.70;99.90
17762;DHT22;9005;48.838;10.112;2023-08-17T04:23:20;17.70;99.90
17762;DHT22;9005;48.838;10.112;2023-08-17T04:25:47;17.70;99.90
17762;DHT22;9005;48.838;10.112;2023-08-17T04:28:14;17.70;99.90
17762;DHT22;9005;48.838;10.112;2023-08-17T04:30:42;17.70;99.90
17762;DHT22;9005;48.838;10.112;2023-08-17T04:33:09;17.60;99.90
17762;DHT22;9005;48.838;10.112;2023-08-17T04:38:03;17.60;99.90
17762;DHT22;9005;48.838;10.112;2023-08-17T04:40:30;17.60;99.90
17762;DHT22;9005;48.838;10.112;2023-08-17T04:42:57;19.00;99.90
17762;DHT22;9005;48.838;10.112;2023-08-17T04:45:24;17.60;99.90
17762;DHT22;9005;48.838;10.112;2023-08-17T04:47:52;17.60;99.90
17762;DHT22;9005;48.838;10.112;2023-08-17T04:50:19;17.60;99.90
17762;DHT22;9005;48.838;10.112;2023-08-17T04:52:46;17.60;99.90
17762;DHT22;9005;48.838;10.112;2023-08-17T04:55:13;17.60;99.90
17762;DHT22;9005;48.838;10.112;2023-08-17T04:57:40;17.70;99.90
17762;DHT22;9005;48.838;10.112;2023-08-17T05:00:07;17.70;99.90
17762;DHT22;9005;48.838;10.112;2023-08-17T05:02:35;17.70;99.90
17762;DHT22;9005;48.838;10.112;2023-08-17T05:05:05;17.80;99.90
17762;DHT22;9005;48.838;10.112;2023-08-17T05:07:32;17.80;99.90
17762;DHT22;9005;48.838;10.112;2023-08-17T05:09:59;17.90;99.90
17762;DHT22;9005;48.838;10.112;2023-08-17T05:12:26;17.90;99.90
17762;DHT22;9005;48.838;10.112;2023-08-17T05:14:52;17.90;99.90
17762;DHT22;9005;48.838;10.112;2023-08-17T05:17:19;18.00;99.90
17762;DHT22;9005;48.838;10.112;2023-08-17T05:19:46;18.00;99.90
17762;DHT22;9005;48.838;10.112;2023-08-17T05:22:14;18.00;99.90
17762;DHT22;9005;48.838;10.112;2023-08-17T05:24:41;18.10;99.90
17762;DHT22;9005;48.838;10.112;2023-08-17T05:27:08;18.10;99.90
17762;DHT22;9005;48.838;10.112;2023-08-17T05:29:35;18.10;99.90
17762;DHT22;9005;48.838;10.112;2023-08-17T05:32:01;18.20;99.90
17762;DHT22;9005;48.838;10.112;2023-08-17T05:34:28;18.30;99.90
17762;DHT22;9005;48.838;10.112;2023-08-17T05:36:55;18.30;99.90
17762;DHT22;9005;48.838;10.112;2023-08-17T05:39:23;18.30;99.90
17762;DHT22;9005;48.838;10.112;2023-08-17T05:41:50;18.40;99.90
17762;DHT22;9005;48.838;10.112;2023-08-17T05:44:17;18.40;99.90
17762;DHT22;9005;48.838;10.112;2023-08-17T05:46:44;18.50;99.90
17762;DHT22;9005;48.838;10.112;2023-08-17T05:49:11;18.60;99.90
17762;DHT22;9005;48.838;10.112;2023-08-17T05:51:38;18.60;99.90
17762;DHT22;9005;48.838;10.112;2023-08-17T05:54:05;18.70;99.90
17762;DHT22;9005;48.838;10.112;2023-08-17T06:16:12;19.70;99.90
17762;DHT22;9005;48.838;10.112;2023-08-17T06:18:39;19.60;99.90
17762;DHT22;9005;48.838;10.112;2023-08-17T06:23:33;19.70;99.90
17762;DHT22;9005;48.838;10.112;2023-08-17T06:26:00;19.60;99.90
17762;DHT22;9005;48.838;10.112;2023-08-17T06:40:45;20.50;99.90
17762;DHT22;9005;48.838;10.112;2023-08-17T06:43:12;20.30;99.90
17762;DHT22;9005;48.838;10.112;2023-08-17T06:45:38;20.30;99.90
17762;DHT22;9005;48.838;10.112;2023-08-17T06:48:07;20.40;99.90
17762;DHT22;9005;48.838;10.112;2023-08-17T06:50:33;20.40;99.90
17762;DHT22;9005;48.838;10.112;2023-08-17T06:53:01;20.40;99.90
17762;DHT22;9005;48.838;10.112;2023-08-17T06:55:28;20.50;99.90
17762;DHT22;9005;48.838;10.112;2023-08-17T06:57:54;20.60;99.90
17762;DHT22;9005;48.838;10.112;2023-08-17T07:00:21;20.70;99.90
17762;DHT22;9005;48.838;10.112;2023-08-17T07:02:48;20.80;99.90
17762;DHT22;9005;48.838;10.112;2023-08-17T07:05:17;20.90;99.90
17762;DHT22;9005;48.838;10.112;2023-08-17T07:07:44;20.90;99.90
17762;DHT22;9005;48.838;10.112;2023-08-17T07:10:11;21.00;99.90
17762;DHT22;9005;48.838;10.112;2023-08-17T07:12:38;21.10;99.90
17762;DHT22;9005;48.838;10.112;2023-08-17T07:15:06;21.20;99.90
17762;DHT22;9005;48.838;10.112;2023-08-17T07:17:34;21.30;73.60
17762;DHT22;9005;48.838;10.112;2023-08-17T07:20:02;21.30;62.40
17762;DHT22;9005;48.838;10.112;2023-08-17T07:22:31;21.40;45.50
17762;DHT22;9005;48.838;10.112;2023-08-17T07:24:57;21.50;40.60
17762;DHT22;9005;48.838;10.112;2023-08-17T07:27:24;21.60;26.30
17762;DHT22;9005;48.838;10.112;2023-08-17T07:29:51;21.70;1.00
17762;DHT22;9005;48.838;10.112;2023-08-17T07:32:18;21.80;1.00
17762;DHT22;9005;48.838;10.112;2023-08-17T07:34:46;21.90;1.00
17762;DHT22;9005;48.838;10.112;2023-08-17T07:39:41;22.10;1.00
17762;DHT22;9005;48.838;10.112;2023-08-17T07:42:08;22.30;1.00
17762;DHT22;9005;48.838;10.112;2023-08-17T07:44:35;22.70;1.00
17762;DHT22;9005;48.838;10.112;2023-08-17T07:47:02;22.60;1.00
17762;DHT22;9005;48.838;10.112;2023-08-17T07:49:29;22.50;1.00
17762;DHT22;9005;48.838;10.112;2023-08-17T07:51:55;22.80;1.00
17762;DHT22;9005;48.838;10.112;2023-08-17T07:54:22;23.10;1.00
17762;DHT22;9005;48.838;10.112;2023-08-17T07:56:50;23.00;1.00
17762;DHT22;9005;48.838;10.112;2023-08-17T07:59:17;23.10;1.00
17762;DHT22;9005;48.838;10.112;2023-08-17T08:01:44;23.30;1.00
17762;DHT22;9005;48.838;10.112;2023-08-17T08:04:10;23.30;1.00
17762;DHT22;9005;48.838;10.112;2023-08-17T08:06:37;23.60;1.00
17762;DHT22;9005;48.838;10.112;2023-08-17T08:09:05;23.40;1.00
17762;DHT22;9005;48.838;10.112;2023-08-17T08:11:32;23.50;99.90
17762;DHT22;9005;48.838;10.112;2023-08-17T08:23:50;24.60;99.90
17762;DHT22;9005;48.838;10.112;2023-08-17T08:26:16;24.50;99.90
17762;DHT22;9005;48.838;10.112;2023-08-17T08:28:43;24.60;99.90
17762;DHT22;9005;48.838;10.112;2023-08-17T08:31:11;24.60;99.90
17762;DHT22;9005;48.838;10.112;2023-08-17T08:33:38;24.80;99.90
17762;DHT22;9005;48.838;10.112;2023-08-17T08:36:05;24.90;99.90
17762;DHT22;9005;48.838;10.112;2023-08-17T08:38:32;24.90;99.90
17762;DHT22;9005;48.838;10.112;2023-08-17T08:40:59;25.10;99.90
17762;DHT22;9005;48.838;10.112;2023-08-17T08:43:27;25.10;99.90
17762;DHT22;9005;48.838;10.112;2023-08-17T08:45:54;25.30;40.00
17762;DHT22;9005;48.838;10.112;2023-08-17T08:48:22;25.40;27.80
17762;DHT22;9005;48.838;10.112;2023-08-17T08:50:54;25.50;1.00
17762;DHT22;9005;48.838;10.112;2023-08-17T08:53:28;25.60;1.00
17762;DHT22;9005;48.838;10.112;2023-08-17T08:55:58;25.80;1.00
17762;DHT22;9005;48.838;10.112;2023-08-17T08:58:26;25.80;1.00
17762;DHT22;9005;48.838;10.112;2023-08-17T09:00:54;25.90;1.00
17762;DHT22;9005;48.838;10.112;2023-08-17T09:03:23;25.90;1.00
17762;DHT22;9005;48.838;10.112;2023-08-17T09:05:52;26.00;1.00
17762;DHT22;9005;48.838;10.112;2023-08-17T09:08:22;26.00;1.00
17762;DHT22;9005;48.838;10.112;2023-08-17T09:10:49;26.00;99.90
17762;DHT22;9005;48.838;10.112;2023-08-17T09:13:16;26.10;99.90
17762;DHT22;9005;48.838;10.112;2023-08-17T09:15:42;26.20;99.90
17762;DHT22;9005;48.838;10.112;2023-08-17T09:18:10;26.30;99.90
17762;DHT22;9005;48.838;10.112;2023-08-17T09:20:42;26.50;99.90
17762;DHT22;9005;48.838;10.112;2023-08-17T09:23:11;26.70;99.90
17762;DHT22;9005;48.838;10.112;2023-08-17T09:25:40;26.80;99.90
17762;DHT22;9005;48.838;10.112;2023-08-17T09:28:07;27.00;99.90
17762;DHT22;9005;48.838;10.112;2023-08-17T09:30:49;27.20;99.90
17762;DHT22;9005;48.838;10.112;2023-08-17T09:33:18;27.20;99.90
17762;DHT22;9005;48.838;10.112;2023-08-17T09:35:46;27.20;99.90
17762;DHT22;9005;48.838;10.112;2023-08-17T09:38:13;27.20;99.90
17762;DHT22;9005;48.838;10.112;2023-08-17T09:40:40;27.20;99.90
17762;DHT22;9005;48.838;10.112;2023-08-17T09:43:07;27.30;99.90
17762;DHT22;9005;48.838;10.112;2023-08-17T09:45:35;27.40;99.90
17762;DHT22;9005;48.838;10.112;2023-08-17T09:48:04;27.60;99.90
17762;DHT22;9005;48.838;10.112;2023-08-17T09:50:31;27.80;99.90
17762;DHT22;9005;48.838;10.112;2023-08-17T09:52:59;28.00;51.20
17762;DHT22;9005;48.838;10.112;2023-08-17T09:55:26;28.10;91.80
17762;DHT22;9005;48.838;10.112;2023-08-17T09:57:53;28.30;87.80
17762;DHT22;9005;48.838;10.112;2023-08-17T10:00:20;28.40;99.90
17762;DHT22;9005;48.838;10.112;2023-08-17T10:02:49;28.60;58.50
17762;DHT22;9005;48.838;10.112;2023-08-17T10:05:18;28.80;75.60
17762;DHT22;9005;48.838;10.112;2023-08-17T10:07:47;28.90;27.60
17762;DHT22;9005;48.838;10.112;2023-08-17T10:10:19;29.10;1.00
17762;DHT22;9005;48.838;10.112;2023-08-17T10:13:03;29.20;1.00
17762;DHT22;9005;48.838;10.112;2023-08-17T10:15:35;29.30;1.00
17762;DHT22;9005;48.838;10.112;2023-08-17T10:18:13;29.30;1.00
17762;DHT22;9005;48.838;10.112;2023-08-17T10:20:57;29.60;1.00
17762;DHT22;9005;48.838;10.112;2023-08-17T10:23:28;30.50;1.00
17762;DHT22;9005;48.838;10.112;2023-08-17T10:25:56;30.40;1.00
17762;DHT22;9005;48.838;10.112;2023-08-17T10:28:24;31.10;1.00
17762;DHT22;9005;48.838;10.112;2023-08-17T10:30:51;31.90;1.00
17762;DHT22;9005;48.838;10.112;2023-08-17T10:33:18;32.70;1.00
17762;DHT22;9005;48.838;10.112;2023-08-17T10:35:45;33.60;1.00
17762;DHT22;9005;48.838;10.112;2023-08-17T10:38:13;34.40;99.90
17762;DHT22;9005;48.838;10.112;2023-08-17T10:40:41;35.00;99.90
17762;DHT22;9005;48.838;10.112;2023-08-17T10:43:10;35.30;99.90
17762;DHT22;9005;48.838;10.112;2023-08-17T10:45:37;35.20;99.90
17762;DHT22;9005;48.838;10.112;2023-08-17T10:48:27;34.80;99.90
17762;DHT22;9005;48.838;10.112;2023-08-17T10:51:04;34.50;99.90
17762;DHT22;9005;48.838;10.112;2023-08-17T10:53:35;34.50;99.90
17762;DHT22;9005;48.838;10.112;2023-08-17T10:56:07;34.70;99.90
17762;DHT22;9005;48.838;10.112;2023-08-17T10:58:36;35.30;99.90
17762;DHT22;9005;48.838;10.112;2023-08-17T11:01:03;36.10;99.90
17762;DHT22;9005;48.838;10.112;2023-08-17T11:03:30;37.10;99.90
17762;DHT22;9005;48.838;10.112;2023-08-17T11:05:57;37.90;99.90
17762;DHT22;9005;48.838;10.112;2023-08-17T11:08:28;38.50;99.90
17762;DHT22;9005;48.838;10.112;2023-08-17T11:11:01;38.50;99.90
17762;DHT22;9005;48.838;10.112;2023-08-17T11:13:30;38.70;99.90
17762;DHT22;9005;48.838;10.112;2023-08-17T11:16:00;39.00;99.90
17762;DHT22;9005;48.838;10.112;2023-08-17T11:18:27;39.00;99.90
17762;DHT22;9005;48.838;10.112;2023-08-17T11:20:54;38.80;99.90
17762;DHT22;9005;48.838;10.112;2023-08-17T11:23:23;38.50;99.90
17762;DHT22;9005;48.838;10.112;2023-08-17T11:25:52;38.50;99.90
17762;DHT22;9005;48.838;10.112;2023-08-17T11:28:19;38.90;99.90
17762;DHT22;9005;48.838;10.112;2023-08-17T11:30:55;39.50;99.90
17762;DHT22;9005;48.838;10.112;2023-08-17T11:33:24;39.90;99.90
17762;DHT22;9005;48.838;10.112;2023-08-17T11:35:53;40.10;99.90
17762;DHT22;9005;48.838;10.112;2023-08-17T11:38:20;40.40;99.90
17762;DHT22;9005;48.838;10.112;2023-08-17T11:40:47;40.70;99.90
17762;DHT22;9005;48.838;10.112;2023-08-17T11:43:14;41.10;99.90
17762;DHT22;9005;48.838;10.112;2023-08-17T11:45:41;41.50;99.90
17762;DHT22;9005;48.838;10.112;2023-08-17T11:48:08;41.70;99.90
17762;DHT22;9005;48.838;10.112;2023-08-17T11:50:36;41.70;99.90
17762;DHT22;9005;48.838;10.112;2023-08-17T11:53:04;41.90;99.90
17762;DHT22;9005;48.838;10.112;2023-08-17T11:55:31;42.10;99.90
17762;DHT22;9005;48.838;10.112;2023-08-17T11:57:58;42.30;99.90
17762;DHT22;9005;48.838;10.112;2023-08-17T12:00:25;42.60;99.90
17762;DHT22;9005;48.838;10.112;2023-08-17T12:02:52;43.00;99.90
17762;DHT22;9005;48.838;10.112;2023-08-17T12:05:20;43.20;99.90
17762;DHT22;9005;48.838;10.112;2023-08-17T12:07:50;43.60;99.90
17762;DHT22;9005;48.838;10.112;2023-08-17T12:10:18;44.00;99.90
17762;DHT22;9005;48.838;10.112;2023-08-17T12:12:46;44.30;99.90
17762;DHT22;9005;48.838;10.112;2023-08-17T12:15:13;44.60;99.90
17762;DHT22;9005;48.838;10.112;2023-08-17T12:17:44;44.60;99.90
17762;DHT22;9005;48.838;10.112;2023-08-17T12:20:16;44.70;99.90
17762;DHT22;9005;48.838;10.112;2023-08-17T12:22:43;44.60;99.90
17762;DHT22;9005;48.838;10.112;2023-08-17T12:25:11;44.40;99.90
17762;DHT22;9005;48.838;10.112;2023-08-17T12:27:39;44.20;99.90
17762;DHT22;9005;48.838;10.112;2023-08-17T12:30:11;44.00;99.90
17762;DHT22;9005;48.838;10.112;2023-08-17T12:32:38;43.60;99.90
17762;DHT22;9005;48.838;10.112;2023-08-17T12:35:06;43.20;99.90
17762;DHT22;9005;48.838;10.112;2023-08-17T12:37:33;42.30;99.90
17762;DHT22;9005;48.838;10.112;2023-08-17T12:40:00;41.30;99.90
17762;DHT22;9005;48.838;10.112;2023-08-17T12:42:28;40.50;99.90
17762;DHT22;9005;48.838;10.112;2023-08-17T12:44:55;40.10;99.90
17762;DHT22;9005;48.838;10.112;2023-08-17T12:47:21;39.80;99.90
17762;DHT22;9005;48.838;10.112;2023-08-17T12:49:48;39.50;99.90
17762;DHT22;9005;48.838;10.112;2023-08-17T12:52:15;39.20;99.90
17762;DHT22;9005;48.838;10.112;2023-08-17T12:54:41;39.10;99.90
17762;DHT22;9005;48.838;10.112;2023-08-17T12:57:08;39.10;99.90
17762;DHT22;9005;48.838;10.112;2023-08-17T12:59:37;39.20;99.90
17762;DHT22;9005;48.838;10.112;2023-08-17T13:02:03;39.40;99.90
17762;DHT22;9005;48.838;10.112;2023-08-17T13:04:30;39.60;99.90
17762;DHT22;9005;48.838;10.112;2023-08-17T13:06:57;39.50;99.90
17762;DHT22;9005;48.838;10.112;2023-08-17T13:09:24;38.70;99.90
17762;DHT22;9005;48.838;10.112;2023-08-17T13:11:50;37.60;99.90
17762;DHT22;9005;48.838;10.112;2023-08-17T13:14:17;36.60;99.90
17762;DHT22;9005;48.838;10.112;2023-08-17T13:16:45;35.60;99.90
17762;DHT22;9005;48.838;10.112;2023-08-17T13:19:12;34.50;99.90
17762;DHT22;9005;48.838;10.112;2023-08-17T13:21:39;33.50;99.90
17762;DHT22;9005;48.838;10.112;2023-08-17T13:24:06;31.90;99.90
17762;DHT22;9005;48.838;10.112;2023-08-17T13:26:33;31.70;99.90
17762;DHT22;9005;48.838;10.112;2023-08-17T13:28:59;31.10;99.90
17762;DHT22;9005;48.838;10.112;2023-08-17T13:31:26;30.60;99.90
17762;DHT22;9005;48.838;10.112;2023-08-17T13:33:55;29.70;99.90
17762;DHT22;9005;48.838;10.112;2023-08-17T13:36:21;29.70;99.90
17762;DHT22;9005;48.838;10.112;2023-08-17T13:38:48;28.90;1.00
17762;DHT22;9005;48.838;10.112;2023-08-17T13:41:15;28.90;1.00
17762;DHT22;9005;48.838;10.112;2023-08-17T13:43:42;28.60;1.00
17762;DHT22;9005;48.838;10.112;2023-08-17T13:46:08;28.40;1.00
17762;DHT22;9005;48.838;10.112;2023-08-17T13:48:50;28.20;1.00
17762;DHT22;9005;48.838;10.112;2023-08-17T13:51:20;28.00;1.00
17762;DHT22;9005;48.838;10.112;2023-08-17T13:53:47;27.90;1.00
17762;DHT22;9005;48.838;10.112;2023-08-17T13:56:14;27.80;7.30
17762;DHT22;9005;48.838;10.112;2023-08-17T13:58:41;27.60;59.00
17762;DHT22;9005;48.838;10.112;2023-08-17T14:01:07;27.40;99.90
17762;DHT22;9005;48.838;10.112;2023-08-17T14:03:35;27.30;99.90
17762;DHT22;9005;48.838;10.112;2023-08-17T14:06:02;27.00;99.90
17762;DHT22;9005;48.838;10.112;2023-08-17T14:08:30;26.80;99.90
17762;DHT22;9005;48.838;10.112;2023-08-17T14:10:57;26.60;99.90
17762;DHT22;9005;48.838;10.112;2023-08-17T14:13:24;26.30;99.90
17762;DHT22;9005;48.838;10.112;2023-08-17T14:15:50;26.10;99.90
17762;DHT22;9005;48.838;10.112;2023-08-17T14:18:17;25.90;1.00
17762;DHT22;9005;48.838;10.112;2023-08-17T14:20:44;25.80;1.00
17762;DHT22;9005;48.838;10.112;2023-08-17T14:23:10;25.80;1.00
17762;DHT22;9005;48.838;10.112;2023-08-17T14:25:39;25.80;1.00
17762;DHT22;9005;48.838;10.112;2023-08-17T14:28:06;25.70;1.00
17762;DHT22;9005;48.838;10.112;2023-08-17T14:30:34;25.60;1.00
17762;DHT22;9005;48.838;10.112;2023-08-17T14:33:00;25.50;1.00
17762;DHT22;9005;48.838;10.112;2023-08-17T14:35:27;25.40;88.00
17762;DHT22;9005;48.838;10.112;2023-08-17T14:37:54;25.30;99.90
17762;DHT22;9005;48.838;10.112;2023-08-17T14:40:23;25.20;99.90
17762;DHT22;9005;48.838;10.112;2023-08-17T14:42:51;25.20;99.90
17762;DHT22;9005;48.838;10.112;2023-08-17T14:45:18;25.10;99.90
17762;DHT22;9005;48.838;10.112;2023-08-17T14:47:44;25.00;99.90
17762;DHT22;9005;48.838;10.112;2023-08-17T14:50:11;24.90;99.90
17762;DHT22;9005;48.838;10.112;2023-08-17T14:52:39;24.80;1.00
17762;DHT22;9005;48.838;10.112;2023-08-17T14:55:07;24.60;1.00
17762;DHT22;9005;48.838;10.112;2023-08-17T14:57:34;24.40;1.20
17762;DHT22;9005;48.838;10.112;2023-08-17T15:00:03;24.20;35.50
17762;DHT22;9005;48.838;10.112;2023-08-17T15:02:30;24.10;63.50
17762;DHT22;9005;48.838;10.112;2023-08-17T15:04:57;24.00;99.90
17762;DHT22;9005;48.838;10.112;2023-08-17T15:07:24;23.90;99.90
17762;DHT22;9005;48.838;10.112;2023-08-17T15:09:50;23.70;99.90
17762;DHT22;9005;48.838;10.112;2023-08-17T15:12:18;23.50;99.90
17762;DHT22;9005;48.838;10.112;2023-08-17T15:14:44;23.30;99.90
17762;DHT22;9005;48.838;10.112;2023-08-17T15:17:12;23.10;99.90
17762;DHT22;9005;48.838;10.112;2023-08-17T15:19:39;23.00;99.90
17762;DHT22;9005;48.838;10.112;2023-08-17T15:22:06;22.90;99.90
17762;DHT22;9005;48.838;10.112;2023-08-17T15:24:33;22.80;99.90
17762;DHT22;9005;48.838;10.112;2023-08-17T15:27:00;22.70;99.90
17762;DHT22;9005;48.838;10.112;2023-08-17T15:29:26;21.90;99.90
17762;DHT22;9005;48.838;10.112;2023-08-17T15:31:53;22.80;99.90
17762;DHT22;9005;48.838;10.112;2023-08-17T15:34:21;22.70;99.90
17762;DHT22;9005;48.838;10.112;2023-08-17T15:36:48;22.80;99.90
17762;DHT22;9005;48.838;10.112;2023-08-17T15:39:15;22.90;99.90
17762;DHT22;9005;48.838;10.112;2023-08-17T15:41:41;23.00;99.90
17762;DHT22;9005;48.838;10.112;2023-08-17T15:44:08;23.10;99.90
17762;DHT22;9005;48.838;10.112;2023-08-17T15:46:35;23.40;99.90
17762;DHT22;9005;48.838;10.112;2023-08-17T15:49:01;23.00;99.90
17762;DHT22;9005;48.838;10.112;2023-08-17T15:51:30;23.10;99.90
17762;DHT22;9005;48.838;10.112;2023-08-17T15:53:56;23.10;99.90
17762;DHT22;9005;48.838;10.112;2023-08-17T15:56:23;23.20;99.90
17762;DHT22;9005;48.838;10.112;2023-08-17T15:58:50;23.20;99.90
17762;DHT22;9005;48.838;10.112;2023-08-17T16:01:17;23.20;99.90
17762;DHT22;9005;48.838;10.112;2023-08-17T16:03:44;23.10;99.90
17762;DHT22;9005;48.838;10.112;2023-08-17T16:06:11;23.10;99.90
17762;DHT22;9005;48.838;10.112;2023-08-17T16:08:41;23.00;99.90
17762;DHT22;9005;48.838;10.112;2023-08-17T16:11:08;23.00;99.90
17762;DHT22;9005;48.838;10.112;2023-08-17T16:13:35;23.00;99.90
17762;DHT22;9005;48.838;10.112;2023-08-17T16:16:02;23.10;99.90
17762;DHT22;9005;48.838;10.112;2023-08-17T16:18:28;23.10;99.90
17762;DHT22;9005;48.838;10.112;2023-08-17T16:20:55;23.10;99.90
17762;DHT22;9005;48.838;10.112;2023-08-17T16:23:22;23.10;99.90